createdAt,value
2023-01-11T00:02:05.801Z,96066.56
2023-01-11T00:07:07.736Z,96069.63
2023-01-11T00:12:12.426Z,96067.69
2023-01-11T00:17:14.403Z,96060.03
2023-01-11T00:22:16.403Z,96058.91
2023-01-11T00:27:18.289Z,96048.53
2023-01-11T00:32:20.284Z,96037.69
2023-01-11T00:37:22.287Z,96033.31
2023-01-11T00:42:42.703Z,96028.25
2023-01-11T00:48:04.985Z,96038.28
2023-01-11T00:53:08.434Z,96035.81
2023-01-11T00:58:10.441Z,96028.72
2023-01-11T01:03:12.327Z,96023.22
2023-01-11T01:08:14.114Z,96029.41
2023-01-11T01:13:34.418Z,96022.19
2023-01-11T01:18:36.220Z,96015.19
2023-01-11T01:23:38.300Z,96009.91
2023-01-11T01:28:40.192Z,96001.47
2023-01-11T01:33:42.201Z,96003.09
2023-01-11T01:38:43.992Z,95996.56
2023-01-11T01:43:58.094Z,96003.09
2023-01-11T01:49:13.784Z,95997.03
2023-01-11T01:54:22.528Z,96001.63
2023-01-11T01:59:26.719Z,96007.41
2023-01-11T02:04:32.893Z,95985.63
2023-01-11T02:09:56.923Z,95985.31
2023-01-11T02:15:01.529Z,95987.56
2023-01-11T02:20:12.483Z,95975.63
2023-01-11T02:25:26.251Z,95971.78
2023-01-11T02:30:54.761Z,95968.63
2023-01-11T02:36:05.860Z,95966.19
2023-01-11T02:41:24.733Z,95961.78
2023-01-11T02:46:42.105Z,95952.56
2023-01-11T02:51:59.290Z,95959.53
2023-01-11T02:57:02.790Z,95960.31
2023-01-11T03:02:05.004Z,95953.69
2023-01-11T03:07:31.798Z,95940.16
2023-01-11T03:13:04.628Z,95940.06
2023-01-11T03:18:40.461Z,95955.41
2023-01-11T03:23:49.473Z,95941.03
2023-01-11T03:29:19.579Z,95936.72
2023-01-11T03:34:49.386Z,95924.69
2023-01-11T03:40:04.518Z,95912.06
2023-01-11T03:45:06.934Z,95909.78
2023-01-11T03:50:13.636Z,95901.31
2023-01-11T03:55:16.947Z,95907.44
2023-01-11T04:00:23.365Z,95906.28
2023-01-11T04:05:25.931Z,95905.16
2023-01-11T04:10:28.096Z,95904.81
2023-01-11T04:15:35.139Z,95902.53
2023-01-11T04:20:40.821Z,95901.50
2023-01-11T04:25:42.669Z,95889.22
2023-01-11T04:30:44.687Z,95891.56
2023-01-11T04:35:47.252Z,95887.41
2023-01-11T04:40:48.993Z,95885.53
2023-01-11T04:45:50.735Z,95883.28
2023-01-11T04:50:52.898Z,95877.88
2023-01-11T04:55:54.659Z,95870.97
2023-01-11T05:00:56.669Z,95872.19
2023-01-11T05:06:00.365Z,95876.13
2023-01-11T05:11:04.877Z,95868.38
2023-01-11T05:16:07.336Z,95868.00
2023-01-11T05:21:10.897Z,95864.97
2023-01-11T05:26:18.893Z,95863.66
2023-01-11T05:31:20.807Z,95876.22
2023-01-11T05:36:24.338Z,95861.47
2023-01-11T05:41:27.529Z,95874.91
2023-01-11T05:46:29.842Z,95868.28
2023-01-11T05:51:32.790Z,95864.59
2023-01-11T05:56:34.864Z,95856.81
2023-01-11T06:01:36.764Z,95861.91
2023-01-11T06:06:38.602Z,95856.13
2023-01-11T06:11:40.413Z,95853.97
2023-01-11T06:16:42.315Z,95850.03
2023-01-11T06:21:44.192Z,95849.59
2023-01-11T06:26:45.964Z,95840.69
2023-01-11T06:31:48.009Z,95835.03
2023-01-11T06:36:49.768Z,95825.06
2023-01-11T06:41:51.500Z,95826.22
2023-01-11T06:46:53.525Z,95821.25
2023-01-11T06:51:55.354Z,95824.81
2023-01-11T06:56:57.021Z,95822.09
2023-01-11T07:01:59.300Z,95826.56
2023-01-11T07:07:01.267Z,95820.09
2023-01-11T07:12:03.240Z,95829.09
2023-01-11T07:17:05.145Z,95831.56
2023-01-11T07:22:08.165Z,95831.28
2023-01-11T07:27:09.915Z,95829.81
2023-01-11T07:32:11.838Z,95831.03
2023-01-11T07:37:28.145Z,95828.38
2023-01-11T07:42:49.705Z,95832.31
2023-01-11T07:47:54.141Z,95829.25
2023-01-11T07:52:55.983Z,95841.31
2023-01-11T07:57:57.888Z,95841.31
2023-01-11T08:03:00.719Z,95833.19
2023-01-11T08:08:02.889Z,95832.47
2023-01-11T08:13:23.108Z,95831.81
2023-01-11T08:18:25.080Z,95823.69
2023-01-11T08:23:27.431Z,95834.56
2023-01-11T08:28:29.251Z,95824.91
2023-01-11T08:33:30.989Z,95817.91
2023-01-11T08:38:32.939Z,95817.19
2023-01-11T08:43:34.844Z,95804.09
2023-01-11T08:48:37.040Z,95805.56
2023-01-11T08:53:39.032Z,95803.66
2023-01-11T08:58:40.814Z,95802.53
2023-01-11T09:03:42.556Z,95802.97
2023-01-11T09:08:44.519Z,95812.63
2023-01-11T09:13:46.619Z,95812.72
2023-01-11T09:18:48.479Z,95799.69
2023-01-11T09:23:50.386Z,95803.53
2023-01-11T09:28:52.217Z,95805.19
2023-01-11T09:33:54.338Z,95805.63
2023-01-11T09:38:58.002Z,95803.75
2023-01-11T09:44:16.703Z,95797.38
2023-01-11T09:49:28.315Z,95799.78
2023-01-11T09:54:30.151Z,95794.44
2023-01-11T09:59:50.852Z,95787.97
2023-01-11T10:05:26.217Z,95782.59
2023-01-11T10:18:40.004Z,95774.19
2023-01-11T10:22:00.559Z,95769.38
2023-01-11T10:27:04.242Z,95756.75
2023-01-11T10:32:34.891Z,95748.84
2023-01-11T10:38:02.736Z,95756.44
2023-01-11T10:43:22.797Z,95744.56
2023-01-11T10:48:35.764Z,95730.75
2023-01-11T10:54:14.522Z,95721.28
2023-01-11T10:59:38.243Z,95716.41
2023-01-11T11:05:05.223Z,95711.88
2023-01-11T11:10:14.518Z,95704.16
2023-01-11T11:15:41.153Z,95690.25
2023-01-11T11:20:44.309Z,95678.72
2023-01-11T11:25:56.304Z,95673.06
2023-01-11T11:31:02.863Z,95673.63
2023-01-11T11:36:13.507Z,95658.56
2023-01-11T11:41:17.414Z,95658.25
2023-01-11T11:46:26.628Z,95648.97
2023-01-11T11:51:28.715Z,95642.81
2023-01-11T11:56:41.430Z,95643.63
2023-01-11T12:01:47.768Z,95637.09
2023-01-11T12:07:17.205Z,95637.44
2023-01-11T12:12:22.552Z,95624.63
2023-01-11T12:17:26.749Z,95630.44
2023-01-11T12:22:29.387Z,95626.88
2023-01-11T12:27:58.581Z,95623.41
2023-01-11T12:33:22.371Z,95617.97
2023-01-11T12:38:30.779Z,95626.56
2023-01-11T12:43:38.891Z,95619.56
2023-01-11T12:48:55.091Z,95616.84
2023-01-11T12:54:30.865Z,95613.34
2023-01-11T13:00:06.485Z,95606.72
2023-01-11T13:05:15.531Z,95602.09
2023-01-11T13:10:31.500Z,95587.75
2023-01-11T13:15:44.075Z,95591.28
2023-01-11T13:21:01.788Z,95594.03
2023-01-11T13:26:16.744Z,95592.13
2023-01-11T13:31:19.600Z,95597.13
2023-01-11T13:36:28.969Z,95602.63
2023-01-11T13:41:38.249Z,95597.59
2023-01-11T13:47:08.243Z,95597.13
2023-01-11T13:52:28.462Z,95591.69
2023-01-11T13:57:35.599Z,95595.97
2023-01-11T14:02:46.718Z,95594.78
2023-01-11T14:07:48.250Z,95595.94
2023-01-11T14:13:14.494Z,95591.28
2023-01-11T14:18:40.079Z,95596.69
2023-01-11T14:23:51.884Z,95595.50
2023-01-11T14:29:27.802Z,95608.66
2023-01-11T14:34:51.373Z,95610.59
2023-01-11T14:40:18.155Z,95607.84
2023-01-11T14:45:43.348Z,95613.66
2023-01-11T14:51:20.901Z,95608.66
2023-01-11T14:56:37.626Z,95614.09
2023-01-11T15:02:04.474Z,95607.09
2023-01-11T15:07:34.023Z,95610.22
2023-01-11T15:12:38.595Z,95607.50
2023-01-11T15:18:00.776Z,95602.84
2023-01-11T15:23:05.986Z,95612.56
2023-01-11T15:28:46.312Z,95607.13
2023-01-11T15:33:49.089Z,95609.91
2023-01-11T15:39:03.138Z,95614.94
2023-01-11T15:44:33.547Z,95623.47
2023-01-11T15:49:38.241Z,95625.88
2023-01-11T15:54:51.147Z,95617.34
2023-01-11T16:00:17.880Z,95638.75
2023-01-11T16:05:31.237Z,95641.13
2023-01-11T16:10:44.848Z,95646.16
2023-01-11T16:15:55.306Z,95648.16
2023-01-11T16:21:08.193Z,95664.47
2023-01-11T16:26:17.159Z,95678.50
2023-01-11T16:31:20.243Z,95688.66
2023-01-11T16:36:24.060Z,95684.09
2023-01-11T16:41:30.775Z,95687.63
2023-01-11T16:46:47.717Z,95697.78
2023-01-11T16:51:49.546Z,95703.66
2023-01-11T16:56:51.703Z,95716.94
2023-01-11T17:01:59.090Z,95705.72
2023-01-11T17:07:25.260Z,95728.69
2023-01-11T17:12:27.497Z,95725.25
2023-01-11T17:17:35.656Z,95714.44
2023-01-11T17:22:38.187Z,95726.13
2023-01-11T17:27:50.994Z,95737.03
2023-01-11T17:32:55.427Z,95748.34
2023-01-11T17:37:59.858Z,95749.16
2023-01-11T17:43:40.176Z,95763.19
2023-01-11T17:48:55.843Z,95777.97
2023-01-11T17:53:58.379Z,95778.38
2023-01-11T17:59:24.323Z,95790.47
2023-01-11T18:04:27.794Z,95774.13
2023-01-11T18:09:32.140Z,95790.09
2023-01-11T18:14:47.195Z,95794.72
2023-01-11T18:19:48.986Z,95803.69
2023-01-11T18:24:55.252Z,95807.22
2023-01-11T18:30:01.810Z,95803.38
2023-01-11T18:35:04.284Z,95811.53
2023-01-11T18:40:10.905Z,95809.16
2023-01-11T18:45:14.042Z,95819.69
2023-01-11T18:50:19.362Z,95834.50
2023-01-11T18:55:23.176Z,95830.59
2023-01-11T19:00:25.235Z,95851.22
2023-01-11T19:05:27.539Z,95837.66
2023-01-11T19:10:29.703Z,95850.50
2023-01-11T19:15:34.687Z,95848.56
2023-01-11T19:20:37.594Z,95857.53
2023-01-11T19:25:39.464Z,95870.75
2023-01-11T19:30:41.452Z,95882.47
2023-01-11T19:35:44.565Z,95899.59
2023-01-11T19:40:48.450Z,95907.41
2023-01-11T19:45:58.324Z,95906.63
2023-01-11T19:51:10.251Z,95922.19
2023-01-11T19:56:12.351Z,95922.97
2023-01-11T20:01:14.641Z,95922.19
2023-01-11T20:06:16.691Z,95930.75
2023-01-11T20:11:19.653Z,95923.78
2023-01-11T20:16:23.738Z,95925.72
2023-01-11T20:21:28.921Z,95921.84
2023-01-11T20:26:34.362Z,95924.16
2023-01-11T20:31:36.403Z,95925.72
2023-01-11T20:36:38.316Z,95936.19
2023-01-11T20:41:49.789Z,95940.84
2023-01-11T20:46:52.735Z,95952.13
2023-01-11T20:51:54.612Z,95957.19
2023-01-11T20:57:02.261Z,95959.13
2023-01-11T21:02:04.321Z,95954.81
2023-01-11T21:07:06.144Z,95964.09
2023-01-11T21:12:09.528Z,95964.06
2023-01-11T21:17:11.719Z,95975.31
2023-01-11T21:22:13.891Z,95983.44
2023-01-11T21:27:16.018Z,95964.31
2023-01-11T21:32:17.923Z,95989.63
2023-01-11T21:37:24.136Z,95996.19
2023-01-11T21:42:26.183Z,95992.69
2023-01-11T21:47:28.257Z,95996.97
2023-01-11T21:52:30.260Z,96000.91
2023-01-11T21:57:32.358Z,96005.56
2023-01-11T22:02:34.147Z,96017.63
2023-01-11T22:07:38.457Z,96018.72
2023-01-11T22:12:40.658Z,96027.25
2023-01-11T22:17:42.681Z,96028.81
2023-01-11T22:22:44.799Z,96026.03
2023-01-11T22:27:46.615Z,96029.16
2023-01-11T22:32:48.797Z,96034.59
2023-01-11T22:37:51.174Z,96039.25
2023-01-11T22:42:53.431Z,96034.16
2023-01-11T22:47:56.622Z,96048.13
2023-01-11T22:52:58.584Z,96054.31
2023-01-11T22:58:00.511Z,96046.47
2023-01-11T23:03:03.287Z,96065.91
2023-01-11T23:08:05.815Z,96067.88
2023-01-11T23:13:29.501Z,96085.41
2023-01-11T23:18:31.400Z,96081.09
2023-01-11T23:23:33.733Z,96075.34
2023-01-11T23:28:35.888Z,96087.84
2023-01-11T23:33:38.174Z,96095.59
2023-01-11T23:38:40.222Z,96085.13
2023-01-11T23:43:42.058Z,96083.50
2023-01-11T23:48:43.866Z,96077.59
2023-01-11T23:53:45.914Z,96074.06
2023-01-11T23:58:47.799Z,96084.88
